Time;durP1;ratioP1;P1;durP2;ratioP2;P2;SDS_P1;SDS_P2;PMS_P1;PMS_P2;Temp;Humidity;BMP_temperature;BMP_pressure;BME280_temperature;BME280_humidity;BME280_pressure;Samples;Min_cycle;Max_cycle;Signal;HPM_P1;HPM_P2
2022/09/18 00:01:35;;;;;;;;;;;13.20;99.90;;;;;;4147092;28;19925;-63
2022/09/18 00:03:37;;;;;;;;;;;13.20;99.90;;;;;;4150886;28;19913;-63
2022/09/18 00:05:37;;;;;;;;;;;13.20;99.90;;;;;;4147306;28;19992;-62
2022/09/18 00:07:38;;;;;;;;;;;13.20;99.90;;;;;;4146823;28;19914;-63
2022/09/18 00:09:39;;;;;;;;;;;13.20;99.90;;;;;;4146717;28;19909;-62
2022/09/18 00:11:41;;;;;;;;;;;13.20;99.90;;;;;;4153609;28;19940;-63
2022/09/18 00:13:42;;;;;;;;;;;13.10;99.90;;;;;;4154393;28;20328;-62
2022/09/18 00:15:52;;;;;;;;;;;13.10;99.90;;;;;;4147394;28;19909;-62
2022/09/18 00:17:53;;;;;;;;;;;13.10;99.90;;;;;;4158127;28;20369;-62
2022/09/18 00:19:54;;;;;;;;;;;13.00;99.90;;;;;;4162892;28;19924;-62
2022/09/18 00:21:55;;;;;;;;;;;13.00;99.90;;;;;;4150932;28;19909;-63
2022/09/18 00:23:56;;;;;;;;;;;12.90;99.90;;;;;;4146446;28;20345;-64
2022/09/18 00:25:57;;;;;;;;;;;12.90;99.90;;;;;;4146156;28;19909;-62
2022/09/18 00:27:58;;;;;;;;;;;12.90;99.90;;;;;;4149306;28;20292;-62
2022/09/18 00:29:59;;;;;;;;;;;12.80;99.90;;;;;;4148417;28;19918;-63
2022/09/18 00:32:00;;;;;;;;;;;12.80;99.90;;;;;;4157713;28;19928;-62
2022/09/18 00:34:03;;;;;;;;;;;12.80;99.90;;;;;;4163074;28;19940;-63
2022/09/18 00:36:05;;;;;;;;;;;12.70;99.90;;;;;;4162807;28;19905;-62
2022/09/18 00:38:06;;;;;;;;;;;12.60;99.90;;;;;;4162801;28;20419;-62
2022/09/18 00:40:07;;;;;;;;;;;12.50;99.90;;;;;;4161885;28;19913;-62
2022/09/18 00:42:11;;;;;;;;;;;12.40;99.90;;;;;;4162074;28;20308;-63
2022/09/18 00:44:30;;;;;;;;;;;12.40;99.90;;;;;;4161749;28;19909;-64
2022/09/18 00:46:32;;;;;;;;;;;12.30;99.90;;;;;;4160520;28;20269;-63
2022/09/18 00:48:43;;;;;;;;;;;12.30;99.90;;;;;;4157638;28;19913;-63
2022/09/18 00:50:44;;;;;;;;;;;12.30;99.90;;;;;;4146280;28;19910;-63
2022/09/18 00:52:45;;;;;;;;;;;12.30;99.90;;;;;;4146864;28;19972;-63
2022/09/18 00:54:48;;;;;;;;;;;12.20;99.90;;;;;;4146934;28;20448;-63
2022/09/18 00:56:52;;;;;;;;;;;12.20;99.90;;;;;;4163425;28;19909;-63
2022/09/18 00:58:53;;;;;;;;;;;12.20;99.90;;;;;;4162644;28;19905;-64
2022/09/18 01:00:54;;;;;;;;;;;12.20;99.90;;;;;;4163134;28;20412;-63
2022/09/18 01:02:55;;;;;;;;;;;12.10;99.90;;;;;;4154764;28;19917;-62
2022/09/18 01:04:56;;;;;;;;;;;12.20;99.90;;;;;;4150035;28;19909;-62
2022/09/18 01:07:15;;;;;;;;;;;12.10;99.90;;;;;;4145701;28;20412;-63
2022/09/18 01:09:19;;;;;;;;;;;12.10;99.90;;;;;;4151055;28;20419;-62
2022/09/18 01:11:29;;;;;;;;;;;12.10;99.90;;;;;;4160805;28;19917;-62
2022/09/18 01:13:42;;;;;;;;;;;12.10;99.90;;;;;;4146363;28;20408;-63
2022/09/18 01:16:01;;;;;;;;;;;12.10;99.90;;;;;;4146141;28;19912;-62
2022/09/18 01:18:06;;;;;;;;;;;12.10;99.90;;;;;;4146654;28;19909;-63
2022/09/18 01:20:26;;;;;;;;;;;12.10;99.90;;;;;;4151854;28;19913;-63
2022/09/18 01:22:36;;;;;;;;;;;12.10;99.90;;;;;;4158622;28;20443;-62
2022/09/18 01:25:15;;;;;;;;;;;12.00;99.90;;;;;;4145267;28;19932;-62
2022/09/18 01:27:33;;;;;;;;;;;12.00;99.90;;;;;;4097404;28;19914;-61
2022/09/18 01:29:38;;;;;;;;;;;12.00;99.90;;;;;;4102090;28;19909;-62
2022/09/18 01:31:43;;;;;;;;;;;12.00;99.90;;;;;;4115693;28;20302;-62
2022/09/18 01:33:50;;;;;;;;;;;11.90;99.90;;;;;;4145234;28;19913;-62
2022/09/18 01:35:52;;;;;;;;;;;11.80;99.90;;;;;;4146577;28;19910;-60
2022/09/18 01:38:05;;;;;;;;;;;11.80;99.90;;;;;;4156486;28;20348;-62
2022/09/18 01:40:18;;;;;;;;;;;11.80;99.90;;;;;;4161069;28;19964;-62
2022/09/18 01:42:21;;;;;;;;;;;11.70;99.90;;;;;;4161627;28;19940;-61
2022/09/18 01:44:25;;;;;;;;;;;11.70;99.90;;;;;;4160502;28;19916;-63
2022/09/18 01:46:26;;;;;;;;;;;11.70;99.90;;;;;;4160988;28;19913;-62
2022/09/18 01:48:30;;;;;;;;;;;11.60;99.90;;;;;;4160905;28;20422;-62
2022/09/18 01:50:32;;;;;;;;;;;11.60;99.90;;;;;;4160767;28;20423;-62
2022/09/18 01:52:39;;;;;;;;;;;11.50;99.90;;;;;;4151978;28;19943;-62
2022/09/18 01:54:41;;;;;;;;;;;11.60;99.90;;;;;;4159722;28;19913;-62
2022/09/18 01:56:47;;;;;;;;;;;11.50;99.90;;;;;;4162623;28;19912;-62
2022/09/18 01:58:48;;;;;;;;;;;11.40;99.90;;;;;;4161651;28;19939;-62
2022/09/18 02:00:51;;;;;;;;;;;11.40;99.90;;;;;;4161991;28;19917;-61
2022/09/18 02:02:53;;;;;;;;;;;11.30;99.90;;;;;;4161469;28;19951;-61
2022/09/18 02:04:57;;;;;;;;;;;11.30;99.90;;;;;;4156361;28;19971;-63
2022/09/18 02:07:18;;;;;;;;;;;11.30;99.90;;;;;;4160651;28;19913;-62
2022/09/18 02:09:19;;;;;;;;;;;11.20;99.90;;;;;;4149971;28;20328;-62
2022/09/18 02:11:21;;;;;;;;;;;11.20;99.90;;;;;;4145284;28;19917;-62
2022/09/18 02:13:25;;;;;;;;;;;11.20;99.90;;;;;;4145323;28;19905;-62
2022/09/18 02:15:27;;;;;;;;;;;11.20;99.90;;;;;;4159170;28;19909;-61
2022/09/18 02:17:34;;;;;;;;;;;11.20;99.90;;;;;;4159874;28;19909;-61
2022/09/18 02:19:43;;;;;;;;;;;11.20;99.90;;;;;;4161734;28;20327;-61
2022/09/18 02:21:45;;;;;;;;;;;11.10;99.90;;;;;;4153710;28;19909;-62
2022/09/18 02:23:47;;;;;;;;;;;11.10;99.90;;;;;;4145936;28;19952;-61
2022/09/18 02:25:58;;;;;;;;;;;11.10;99.90;;;;;;4144822;28;20316;-62
2022/09/18 02:27:59;;;;;;;;;;;11.10;99.90;;;;;;4146996;28;19914;-63
2022/09/18 02:30:01;;;;;;;;;;;11.10;99.90;;;;;;4145912;28;19909;-61
2022/09/18 02:32:02;;;;;;;;;;;11.10;99.90;;;;;;4145753;28;19917;-62
2022/09/18 02:34:03;;;;;;;;;;;11.10;99.90;;;;;;4146803;28;19915;-61
2022/09/18 02:36:07;;;;;;;;;;;11.00;99.90;;;;;;4148736;28;19944;-62
2022/09/18 02:38:34;;;;;;;;;;;11.00;99.90;;;;;;4148058;28;19983;-62
2022/09/18 02:40:36;;;;;;;;;;;11.00;99.90;;;;;;4125152;28;19905;-62
2022/09/18 02:42:40;;;;;;;;;;;10.90;99.90;;;;;;4146282;28;19944;-61
2022/09/18 02:45:02;;;;;;;;;;;10.90;99.90;;;;;;4149923;28;19972;-63
2022/09/18 02:47:16;;;;;;;;;;;10.90;99.90;;;;;;4148897;28;19913;-62
2022/09/18 02:49:29;;;;;;;;;;;10.90;99.90;;;;;;4149082;28;19987;-62
2022/09/18 02:51:53;;;;;;;;;;;10.90;99.90;;;;;;4147699;28;19917;-63
2022/09/18 02:53:57;;;;;;;;;;;10.90;99.90;;;;;;4144335;28;19995;-65
2022/09/18 02:56:04;;;;;;;;;;;10.80;99.90;;;;;;4147634;28;19909;-62
2022/09/18 02:58:08;;;;;;;;;;;10.80;99.90;;;;;;4148332;28;20321;-61
2022/09/18 03:00:15;;;;;;;;;;;10.70;99.90;;;;;;4147705;28;19921;-61
2022/09/18 03:02:18;;;;;;;;;;;10.60;99.90;;;;;;4148889;28;20350;-63
2022/09/18 03:04:20;;;;;;;;;;;10.60;99.90;;;;;;4147556;28;19952;-62
2022/09/18 03:06:21;;;;;;;;;;;10.50;99.90;;;;;;4153262;28;19917;-61
2022/09/18 03:08:22;;;;;;;;;;;10.50;99.90;;;;;;4147611;28;19963;-62
2022/09/18 03:10:24;;;;;;;;;;;10.40;99.90;;;;;;4148577;28;19914;-61
2022/09/18 03:12:25;;;;;;;;;;;10.30;99.90;;;;;;4160965;28;19921;-62
2022/09/18 03:14:26;;;;;;;;;;;10.30;99.90;;;;;;4150713;28;19909;-63
2022/09/18 03:16:28;;;;;;;;;;;10.20;99.90;;;;;;4155397;28;19966;-61
2022/09/18 03:18:28;;;;;;;;;;;10.20;99.90;;;;;;4160392;28;19909;-62
2022/09/18 03:20:30;;;;;;;;;;;10.20;99.90;;;;;;4162304;28;19905;-62
2022/09/18 03:22:30;;;;;;;;;;;10.10;99.90;;;;;;4158491;28;19913;-61
2022/09/18 03:24:31;;;;;;;;;;;10.10;99.90;;;;;;4161120;28;19909;-62
2022/09/18 03:26:32;;;;;;;;;;;10.20;99.90;;;;;;4147841;28;19910;-62
2022/09/18 03:28:33;;;;;;;;;;;10.10;99.90;;;;;;4148913;28;19909;-62
2022/09/18 03:30:35;;;;;;;;;;;10.10;99.90;;;;;;4147357;28;19945;-61
2022/09/18 03:32:35;;;;;;;;;;;10.00;99.90;;;;;;4154441;28;19967;-62
2022/09/18 03:34:37;;;;;;;;;;;10.10;99.90;;;;;;4163591;28;20379;-63
2022/09/18 03:36:38;;;;;;;;;;;10.00;99.90;;;;;;4162869;28;19951;-62
2022/09/18 03:38:40;;;;;;;;;;;10.00;99.90;;;;;;4162871;28;20316;-62
2022/09/18 03:40:44;;;;;;;;;;;9.90;99.90;;;;;;4163903;28;19944;-61
2022/09/18 03:42:45;;;;;;;;;;;9.90;99.90;;;;;;4163058;28;19959;-62
2022/09/18 03:44:46;;;;;;;;;;;9.80;99.90;;;;;;4156632;28;19963;-63
2022/09/18 03:46:47;;;;;;;;;;;9.80;99.90;;;;;;4150742;28;19909;-62
2022/09/18 03:48:51;;;;;;;;;;;9.80;99.90;;;;;;4148451;28;19996;-62
2022/09/18 03:50:52;;;;;;;;;;;9.80;99.90;;;;;;4147441;28;19952;-61
2022/09/18 03:52:54;;;;;;;;;;;9.80;99.90;;;;;;4151408;28;19916;-63
2022/09/18 03:54:55;;;;;;;;;;;9.80;99.90;;;;;;4161484;28;19913;-62
2022/09/18 03:56:56;;;;;;;;;;;9.80;99.90;;;;;;4146960;28;20491;-62
2022/09/18 03:58:57;;;;;;;;;;;9.80;99.90;;;;;;4148051;28;20431;-62
2022/09/18 04:00:58;;;;;;;;;;;9.80;99.90;;;;;;4147077;28;20052;-64
2022/09/18 04:02:59;;;;;;;;;;;9.70;99.90;;;;;;4163776;28;19921;-61
2022/09/18 04:05:01;;;;;;;;;;;9.70;99.90;;;;;;4162655;28;19913;-61
2022/09/18 04:07:02;;;;;;;;;;;9.70;99.90;;;;;;4164368;28;19913;-61
2022/09/18 04:09:03;;;;;;;;;;;9.70;99.90;;;;;;4154681;28;19916;-62
2022/09/18 04:11:04;;;;;;;;;;;9.60;99.90;;;;;;4147559;28;19910;-61
2022/09/18 04:13:05;;;;;;;;;;;9.60;99.90;;;;;;4149967;28;19917;-62
2022/09/18 04:15:06;;;;;;;;;;;9.60;99.90;;;;;;4163979;28;19932;-63
2022/09/18 04:17:07;;;;;;;;;;;9.60;99.90;;;;;;4159987;28;19912;-61
2022/09/18 04:19:08;;;;;;;;;;;9.60;99.90;;;;;;4159572;28;19913;-61
2022/09/18 04:21:09;;;;;;;;;;;9.60;99.90;;;;;;4162715;28;19920;-62
2022/09/18 04:23:13;;;;;;;;;;;9.60;99.90;;;;;;4161511;28;19913;-63
2022/09/18 04:25:15;;;;;;;;;;;9.60;99.90;;;;;;4160009;28;19917;-62
2022/09/18 04:27:16;;;;;;;;;;;9.60;99.90;;;;;;4148704;28;19906;-61
2022/09/18 04:29:17;;;;;;;;;;;9.60;99.90;;;;;;4147640;28;19913;-63
2022/09/18 04:31:18;;;;;;;;;;;9.60;99.90;;;;;;4146268;28;19924;-62
2022/09/18 04:33:19;;;;;;;;;;;9.60;99.90;;;;;;4147509;28;19906;-64
2022/09/18 04:35:20;;;;;;;;;;;9.60;99.90;;;;;;4146301;28;20419;-62
2022/09/18 04:37:21;;;;;;;;;;;9.70;99.90;;;;;;4147300;28;19906;-61
2022/09/18 04:39:22;;;;;;;;;;;9.60;99.90;;;;;;4153516;28;19932;-62
2022/09/18 04:41:23;;;;;;;;;;;9.60;99.90;;;;;;4163519;28;19954;-62
2022/09/18 04:43:24;;;;;;;;;;;9.70;99.90;;;;;;4160652;28;20266;-61
2022/09/18 04:45:25;;;;;;;;;;;9.70;99.90;;;;;;4163435;28;19917;-63
2022/09/18 04:47:26;;;;;;;;;;;9.70;99.90;;;;;;4160294;28;19996;-62
2022/09/18 04:49:27;;;;;;;;;;;9.80;99.90;;;;;;4146746;28;19964;-61
2022/09/18 04:51:28;;;;;;;;;;;9.80;99.90;;;;;;4147060;28;19913;-61
2022/09/18 04:53:30;;;;;;;;;;;9.80;99.90;;;;;;4154497;28;19909;-61
2022/09/18 04:55:31;;;;;;;;;;;9.80;99.90;;;;;;4155520;28;19909;-61
2022/09/18 04:57:31;;;;;;;;;;;9.80;99.90;;;;;;4154242;28;20583;-62
2022/09/18 04:59:32;;;;;;;;;;;9.80;99.90;;;;;;4146533;28;19940;-62
2022/09/18 05:01:34;;;;;;;;;;;9.80;99.90;;;;;;4156564;28;19908;-61
2022/09/18 05:03:35;;;;;;;;;;;9.70;99.90;;;;;;4163220;28;20332;-62
2022/09/18 05:05:36;;;;;;;;;;;9.70;99.90;;;;;;4161806;28;19913;-62
2022/09/18 05:07:37;;;;;;;;;;;9.70;99.90;;;;;;4151007;28;19913;-63
2022/09/18 05:09:37;;;;;;;;;;;9.70;99.90;;;;;;4154885;28;19932;-64
2022/09/18 05:11:38;;;;;;;;;;;9.60;99.90;;;;;;4160480;28;19913;-64
2022/09/18 05:13:39;;;;;;;;;;;9.60;99.90;;;;;;4161407;28;20358;-62
2022/09/18 05:15:40;;;;;;;;;;;9.60;99.90;;;;;;4162505;28;19913;-62
2022/09/18 05:17:41;;;;;;;;;;;9.60;99.90;;;;;;4157747;28;19913;-62
2022/09/18 05:19:42;;;;;;;;;;;9.70;99.90;;;;;;4147227;28;19912;-61
2022/09/18 05:21:43;;;;;;;;;;;9.60;99.90;;;;;;4144819;28;19905;-61
2022/09/18 05:23:45;;;;;;;;;;;9.60;99.90;;;;;;4145386;28;19936;-62
2022/09/18 05:25:46;;;;;;;;;;;9.60;99.90;;;;;;4145402;28;19928;-62
2022/09/18 05:28:05;;;;;;;;;;;9.60;99.90;;;;;;4146459;28;19956;-62
2022/09/18 05:30:07;;;;;;;;;;;9.60;99.90;;;;;;4154821;28;19916;-62
2022/09/18 05:32:07;;;;;;;;;;;9.60;99.90;;;;;;4161448;28;20332;-61
2022/09/18 05:34:08;;;;;;;;;;;9.60;99.90;;;;;;4162245;28;19915;-62
2022/09/18 05:36:09;;;;;;;;;;;9.60;99.90;;;;;;4161688;28;20387;-62
2022/09/18 05:38:10;;;;;;;;;;;9.60;99.90;;;;;;4162152;28;19959;-62
2022/09/18 05:40:11;;;;;;;;;;;9.60;99.90;;;;;;4159617;28;19935;-62
2022/09/18 05:42:12;;;;;;;;;;;9.60;99.90;;;;;;4162299;28;19951;-61
2022/09/18 05:44:13;;;;;;;;;;;9.60;99.90;;;;;;4157371;28;19956;-62
2022/09/18 05:46:14;;;;;;;;;;;9.70;99.90;;;;;;4150861;28;19913;-61
2022/09/18 05:48:15;;;;;;;;;;;9.70;99.90;;;;;;4144837;28;19905;-63
2022/09/18 05:50:16;;;;;;;;;;;9.70;99.90;;;;;;4145278;28;20035;-62
2022/09/18 05:52:17;;;;;;;;;;;9.70;99.90;;;;;;4148461;28;19921;-62
2022/09/18 05:54:18;;;;;;;;;;;9.80;99.90;;;;;;4158731;28;19953;-62
2022/09/18 05:56:18;;;;;;;;;;;9.80;99.90;;;;;;4148142;28;19941;-63
2022/09/18 05:58:19;;;;;;;;;;;9.90;99.90;;;;;;4145144;28;19912;-63
2022/09/18 06:00:21;;;;;;;;;;;9.80;99.90;;;;;;4146488;28;19917;-65
2022/09/18 06:02:22;;;;;;;;;;;9.90;99.90;;;;;;4154448;28;19909;-62
2022/09/18 06:04:23;;;;;;;;;;;9.90;99.90;;;;;;4160680;28;19920;-62
2022/09/18 06:06:27;;;;;;;;;;;9.90;99.90;;;;;;4153398;28;19935;-62
2022/09/18 06:08:27;;;;;;;;;;;9.90;99.90;;;;;;4161039;28;20328;-63
2022/09/18 06:10:29;;;;;;;;;;;9.90;99.90;;;;;;4160418;28;19920;-61
2022/09/18 06:12:29;;;;;;;;;;;10.00;99.90;;;;;;4150856;28;19994;-62
2022/09/18 06:14:30;;;;;;;;;;;9.90;99.90;;;;;;4146281;28;19920;-62
2022/09/18 06:16:31;;;;;;;;;;;10.00;99.90;;;;;;4144991;28;19913;-62
2022/09/18 06:18:32;;;;;;;;;;;10.00;99.90;;;;;;4148109;28;19909;-64
2022/09/18 06:20:33;;;;;;;;;;;10.00;99.90;;;;;;4145736;28;20366;-61
2022/09/18 06:22:35;;;;;;;;;;;10.00;99.90;;;;;;4145359;28;19964;-61
2022/09/18 06:24:36;;;;;;;;;;;10.10;99.90;;;;;;4145265;28;19956;-62
2022/09/18 06:26:37;;;;;;;;;;;10.00;99.90;;;;;;4145678;28;19939;-63
2022/09/18 06:28:38;;;;;;;;;;;10.00;99.90;;;;;;4145090;28;20414;-63
2022/09/18 06:30:39;;;;;;;;;;;10.00;99.90;;;;;;4144409;28;19951;-62
2022/09/18 06:32:40;;;;;;;;;;;10.00;99.90;;;;;;4143677;28;19925;-63
2022/09/18 06:34:41;;;;;;;;;;;10.10;99.90;;;;;;4144684;28;20274;-62
2022/09/18 06:36:41;;;;;;;;;;;10.10;99.90;;;;;;4145085;28;20043;-62
2022/09/18 06:38:42;;;;;;;;;;;10.10;99.90;;;;;;4157947;28;19920;-62
2022/09/18 06:40:50;;;;;;;;;;;10.10;99.90;;;;;;4146991;28;19947;-63
2022/09/18 06:42:58;;;;;;;;;;;10.20;99.90;;;;;;4159344;28;20407;-65
2022/09/18 06:44:59;;;;;;;;;;;10.30;99.90;;;;;;4157007;28;19913;-65
2022/09/18 06:46:59;;;;;;;;;;;10.40;99.90;;;;;;4161509;28;19913;-61
2022/09/18 06:49:01;;;;;;;;;;;10.50;99.90;;;;;;4148535;28;19917;-65
2022/09/18 06:51:02;;;;;;;;;;;10.60;99.90;;;;;;4154283;28;19909;-64
2022/09/18 06:53:04;;;;;;;;;;;10.70;99.90;;;;;;4156540;28;19916;-64
2022/09/18 06:55:05;;;;;;;;;;;10.80;99.90;;;;;;4177834;28;19904;-63
2022/09/18 06:57:06;;;;;;;;;;;10.90;99.90;;;;;;4154780;28;19909;-63
2022/09/18 06:59:07;;;;;;;;;;;11.10;99.90;;;;;;4157096;28;20266;-63
2022/09/18 07:01:08;;;;;;;;;;;11.50;99.90;;;;;;4160962;28;19920;-64
2022/09/18 07:03:09;;;;;;;;;;;11.80;99.90;;;;;;4156012;28;20419;-63
2022/09/18 07:05:10;;;;;;;;;;;12.20;99.90;;;;;;4159584;28;19913;-63
2022/09/18 07:07:11;;;;;;;;;;;12.60;99.90;;;;;;4157686;28;20647;-63
2022/09/18 07:09:12;;;;;;;;;;;12.90;99.90;;;;;;4160622;28;19911;-64
2022/09/18 07:11:13;;;;;;;;;;;13.00;99.90;;;;;;4154430;28;19962;-62
2022/09/18 07:13:14;;;;;;;;;;;13.10;99.90;;;;;;4160588;28;19992;-63
2022/09/18 07:15:15;;;;;;;;;;;13.10;99.90;;;;;;4158373;28;20367;-63
2022/09/18 07:17:16;;;;;;;;;;;13.20;99.90;;;;;;4154417;28;19913;-64
2022/09/18 07:19:17;;;;;;;;;;;13.30;99.90;;;;;;4160914;28;20300;-64
2022/09/18 07:21:18;;;;;;;;;;;13.30;99.90;;;;;;4163827;28;19913;-63
2022/09/18 07:23:19;;;;;;;;;;;13.30;99.90;;;;;;4161215;28;20545;-64
2022/09/18 07:25:20;;;;;;;;;;;13.10;99.90;;;;;;4164352;28;19963;-64
2022/09/18 07:27:21;;;;;;;;;;;13.00;99.90;;;;;;4158450;28;20003;-64
2022/09/18 07:29:22;;;;;;;;;;;13.00;99.90;;;;;;4161636;28;19913;-63
2022/09/18 07:31:22;;;;;;;;;;;12.90;99.90;;;;;;4155317;28;19967;-65
2022/09/18 07:33:24;;;;;;;;;;;12.90;99.90;;;;;;4192498;28;19921;-64
2022/09/18 07:35:25;;;;;;;;;;;13.00;99.90;;;;;;4148102;28;19914;-64
2022/09/18 07:37:26;;;;;;;;;;;13.00;99.90;;;;;;4149675;28;20439;-63
2022/09/18 07:39:27;;;;;;;;;;;13.00;99.90;;;;;;4148780;28;19910;-64
2022/09/18 07:41:27;;;;;;;;;;;13.00;99.90;;;;;;4149889;28;20808;-64
2022/09/18 07:43:29;;;;;;;;;;;13.20;99.90;;;;;;4152080;28;19909;-64
2022/09/18 07:45:30;;;;;;;;;;;13.20;99.90;;;;;;4156164;28;19983;-65
2022/09/18 07:47:31;;;;;;;;;;;13.40;99.90;;;;;;4148524;28;19921;-64
2022/09/18 07:49:32;;;;;;;;;;;13.50;99.90;;;;;;4151370;28;20383;-64
2022/09/18 07:51:34;;;;;;;;;;;13.50;99.90;;;;;;4151116;28;19968;-64
2022/09/18 07:53:36;;;;;;;;;;;13.60;99.90;;;;;;4147054;28;19918;-63
2022/09/18 07:55:37;;;;;;;;;;;13.60;99.90;;;;;;4147498;28;20263;-63
2022/09/18 07:57:38;;;;;;;;;;;13.70;99.90;;;;;;4150649;28;19968;-63
2022/09/18 07:59:39;;;;;;;;;;;13.60;99.90;;;;;;4146907;28;19909;-62
2022/09/18 08:01:40;;;;;;;;;;;13.60;99.90;;;;;;4146460;28;19954;-63
2022/09/18 08:03:41;;;;;;;;;;;13.60;99.90;;;;;;4147650;28;19981;-62
2022/09/18 08:05:42;;;;;;;;;;;13.60;99.90;;;;;;4147927;28;19936;-63
2022/09/18 08:07:43;;;;;;;;;;;13.50;99.90;;;;;;4160096;28;20369;-63
2022/09/18 08:09:44;;;;;;;;;;;13.40;99.90;;;;;;4148719;28;20332;-63
2022/09/18 08:11:45;;;;;;;;;;;13.30;99.90;;;;;;4146060;28;19905;-62
2022/09/18 08:13:47;;;;;;;;;;;13.20;99.90;;;;;;4149145;28;19925;-63
2022/09/18 08:15:48;;;;;;;;;;;13.10;99.90;;;;;;4150377;28;19933;-63
2022/09/18 08:17:49;;;;;;;;;;;13.10;99.90;;;;;;4147010;28;19913;-63
2022/09/18 08:19:50;;;;;;;;;;;13.10;99.90;;;;;;4145944;28;19917;-64
2022/09/18 08:21:51;;;;;;;;;;;13.10;99.90;;;;;;4146530;28;19979;-63
2022/09/18 08:23:51;;;;;;;;;;;13.00;99.90;;;;;;4149500;28;19909;-62
2022/09/18 08:25:52;;;;;;;;;;;12.90;99.90;;;;;;4147145;28;19912;-62
2022/09/18 08:27:53;;;;;;;;;;;12.90;99.90;;;;;;4155683;28;19909;-64
2022/09/18 08:29:54;;;;;;;;;;;12.90;99.90;;;;;;4147316;28;19913;-65
2022/09/18 08:31:55;;;;;;;;;;;12.90;99.90;;;;;;4144881;28;19905;-63
2022/09/18 08:33:56;;;;;;;;;;;13.00;99.90;;;;;;4145529;28;19914;-64
2022/09/18 08:35:57;;;;;;;;;;;13.00;99.90;;;;;;4145263;28;19906;-64
2022/09/18 08:37:58;;;;;;;;;;;12.90;99.90;;;;;;4146110;28;19952;-63
2022/09/18 08:39:59;;;;;;;;;;;13.00;99.90;;;;;;4146823;28;19937;-64
2022/09/18 08:42:00;;;;;;;;;;;13.00;99.90;;;;;;4145704;28;19909;-64
2022/09/18 08:44:23;;;;;;;;;;;13.00;99.90;;;;;;4146763;28;20007;-63
2022/09/18 08:46:36;;;;;;;;;;;13.00;99.90;;;;;;4149649;28;20374;-64
2022/09/18 08:48:40;;;;;;;;;;;13.00;99.90;;;;;;4146432;28;19967;-63
2022/09/18 08:50:43;;;;;;;;;;;13.20;99.90;;;;;;4150415;28;19951;-64
2022/09/18 08:52:46;;;;;;;;;;;13.30;99.90;;;;;;4172537;28;19951;-64
2022/09/18 08:54:47;;;;;;;;;;;13.30;99.90;;;;;;4177447;28;19999;-63
2022/09/18 08:56:49;;;;;;;;;;;13.40;99.90;;;;;;4162499;28;19909;-65
2022/09/18 08:58:55;;;;;;;;;;;13.50;99.90;;;;;;4161137;28;20648;-64
2022/09/18 09:01:01;;;;;;;;;;;13.60;99.90;;;;;;4157839;28;19920;-62
2022/09/18 09:03:21;;;;;;;;;;;13.70;99.90;;;;;;4155506;28;19963;-63
2022/09/18 09:05:45;;;;;;;;;;;13.80;99.90;;;;;;4174524;28;19939;-68
2022/09/18 09:08:05;;;;;;;;;;;13.80;99.90;;;;;;4172559;28;19904;-63
2022/09/18 09:10:06;;;;;;;;;;;13.70;99.90;;;;;;4159524;28;19912;-65
2022/09/18 09:12:10;;;;;;;;;;;13.50;99.90;;;;;;4160517;28;19909;-62
2022/09/18 09:14:14;;;;;;;;;;;13.50;99.90;;;;;;4158994;28;20385;-66
2022/09/18 09:16:33;;;;;;;;;;;13.40;99.90;;;;;;4192449;28;19942;-63
2022/09/18 09:18:42;;;;;;;;;;;13.40;99.90;;;;;;4191686;28;19908;-65
2022/09/18 09:20:49;;;;;;;;;;;13.40;99.90;;;;;;4155651;28;19913;-63
2022/09/18 09:22:56;;;;;;;;;;;13.40;99.90;;;;;;4144910;28;19971;-63
2022/09/18 09:25:00;;;;;;;;;;;13.50;99.90;;;;;;4144634;28;20362;-62
2022/09/18 09:27:07;;;;;;;;;;;13.60;99.90;;;;;;4157785;28;19917;-63
2022/09/18 09:29:14;;;;;;;;;;;13.70;99.90;;;;;;4171393;28;19912;-61
2022/09/18 09:31:16;;;;;;;;;;;13.90;99.90;;;;;;4179795;28;19912;-63
2022/09/18 09:33:17;;;;;;;;;;;13.80;99.90;;;;;;4166060;28;19913;-63
2022/09/18 09:35:21;;;;;;;;;;;13.70;99.90;;;;;;4161902;28;19909;-64
2022/09/18 09:37:25;;;;;;;;;;;13.50;99.90;;;;;;4144605;28;19948;-65
2022/09/18 09:39:28;;;;;;;;;;;13.40;99.90;;;;;;4143916;28;19984;-66
2022/09/18 09:41:35;;;;;;;;;;;13.40;99.90;;;;;;4144723;28;20336;-61
2022/09/18 09:43:47;;;;;;;;;;;13.30;99.90;;;;;;4160583;28;19909;-65
2022/09/18 09:45:53;;;;;;;;;;;13.20;99.90;;;;;;4159626;28;19909;-65
2022/09/18 09:48:17;;;;;;;;;;;13.10;99.90;;;;;;4147738;28;19917;-67
2022/09/18 09:50:21;;;;;;;;;;;13.00;99.90;;;;;;4142569;28;20007;-66
2022/09/18 09:52:26;;;;;;;;;;;12.90;99.90;;;;;;4160636;28;19917;-68
2022/09/18 09:54:27;;;;;;;;;;;12.90;99.90;;;;;;4150961;28;19967;-65
2022/09/18 09:56:36;;;;;;;;;;;12.90;99.90;;;;;;4145237;28;20301;-66
2022/09/18 09:58:48;;;;;;;;;;;12.90;99.90;;;;;;4145039;28;20317;-62
2022/09/18 10:01:09;;;;;;;;;;;12.80;99.90;;;;;;4145811;28;19917;-61
2022/09/18 10:03:16;;;;;;;;;;;12.90;99.90;;;;;;4137139;28;19906;-62
2022/09/18 10:05:26;;;;;;;;;;;12.90;99.90;;;;;;4145539;28;19905;-63
2022/09/18 10:07:33;;;;;;;;;;;13.00;99.90;;;;;;4145300;28;19913;-66
2022/09/18 10:09:34;;;;;;;;;;;13.10;99.90;;;;;;4153885;28;19909;-64
2022/09/18 10:11:36;;;;;;;;;;;13.10;99.90;;;;;;4160971;28;19908;-65
2022/09/18 10:13:44;;;;;;;;;;;13.20;99.90;;;;;;4160609;28;19925;-64
2022/09/18 10:15:50;;;;;;;;;;;13.20;99.90;;;;;;4161026;28;19967;-63
2022/09/18 10:17:54;;;;;;;;;;;13.20;99.90;;;;;;4161361;28;19963;-63
2022/09/18 10:19:55;;;;;;;;;;;13.10;99.90;;;;;;4161666;28;20027;-64
2022/09/18 10:21:56;;;;;;;;;;;13.10;99.90;;;;;;4161412;28;19936;-63
2022/09/18 10:24:08;;;;;;;;;;;13.10;99.90;;;;;;4161341;28;19932;-65
2022/09/18 10:26:12;;;;;;;;;;;13.00;99.90;;;;;;4158516;28;19913;-63
2022/09/18 10:28:13;;;;;;;;;;;13.00;99.90;;;;;;4148540;28;19914;-62
2022/09/18 10:30:14;;;;;;;;;;;13.00;99.90;;;;;;4167244;28;20316;-66
2022/09/18 10:32:31;;;;;;;;;;;13.00;99.90;;;;;;4156665;28;19967;-64
2022/09/18 10:35:01;;;;;;;;;;;13.00;99.90;;;;;;4166732;28;20365;-63
2022/09/18 10:37:02;;;;;;;;;;;12.90;99.90;;;;;;4168789;28;20365;-65
2022/09/18 10:39:17;;;;;;;;;;;12.90;99.90;;;;;;4161618;28;19905;-62
2022/09/18 10:41:29;;;;;;;;;;;13.00;99.90;;;;;;4161017;28;19963;-63
2022/09/18 10:43:30;;;;;;;;;;;13.00;99.90;;;;;;4144264;28;19909;-62
2022/09/18 10:45:39;;;;;;;;;;;12.90;99.90;;;;;;4161206;28;20107;-67
2022/09/18 10:47:40;;;;;;;;;;;12.90;99.90;;;;;;4157583;28;19952;-62
2022/09/18 10:49:56;;;;;;;;;;;12.80;99.90;;;;;;4148055;28;20259;-64
2022/09/18 10:52:32;;;;;;;;;;;12.80;99.90;;;;;;4144232;28;19951;-64
2022/09/18 10:54:34;;;;;;;;;;;12.90;99.90;;;;;;4111668;28;19914;-63
2022/09/18 10:56:36;;;;;;;;;;;12.80;99.90;;;;;;4132168;28;20396;-64
2022/09/18 10:58:37;;;;;;;;;;;12.80;99.90;;;;;;4148037;28;19909;-62
2022/09/18 11:00:41;;;;;;;;;;;12.70;99.90;;;;;;4148346;28;19917;-62
2022/09/18 11:02:50;;;;;;;;;;;12.70;99.90;;;;;;4146673;28;19932;-62
2022/09/18 11:04:52;;;;;;;;;;;12.70;99.90;;;;;;4147199;28;19910;-62
2022/09/18 11:06:53;;;;;;;;;;;12.80;99.90;;;;;;4148189;28;19956;-61
2022/09/18 11:08:55;;;;;;;;;;;12.90;99.90;;;;;;4147212;28;19953;-64
2022/09/18 11:11:08;;;;;;;;;;;13.20;99.90;;;;;;4149877;28;19980;-62
2022/09/18 11:13:17;;;;;;;;;;;13.30;99.90;;;;;;4161493;28;20004;-62
2022/09/18 11:15:19;;;;;;;;;;;13.40;99.90;;;;;;4164338;28;19954;-62
2022/09/18 11:17:25;;;;;;;;;;;13.60;99.90;;;;;;4149062;28;20336;-62
2022/09/18 11:19:27;;;;;;;;;;;13.60;99.90;;;;;;4148153;28;19913;-61
2022/09/18 11:21:28;;;;;;;;;;;13.70;99.90;;;;;;4147261;28;19955;-62
2022/09/18 11:23:31;;;;;;;;;;;13.80;99.90;;;;;;4148155;28;20325;-63
2022/09/18 11:25:32;;;;;;;;;;;13.80;99.90;;;;;;4147119;28;20507;-61
2022/09/18 11:27:43;;;;;;;;;;;13.70;99.90;;;;;;4149229;28;19909;-61
2022/09/18 11:29:44;;;;;;;;;;;13.80;99.90;;;;;;4147594;28;19913;-62
2022/09/18 11:31:48;;;;;;;;;;;13.90;99.90;;;;;;4148580;28;19952;-61
2022/09/18 11:33:56;;;;;;;;;;;13.90;99.90;;;;;;4146871;28;19982;-61
2022/09/18 11:36:02;;;;;;;;;;;14.00;99.90;;;;;;4147584;28;20313;-60
2022/09/18 11:38:06;;;;;;;;;;;14.10;99.90;;;;;;4157355;28;19901;-62
2022/09/18 11:40:16;;;;;;;;;;;14.20;99.90;;;;;;4163768;28;19917;-63
2022/09/18 11:42:17;;;;;;;;;;;14.20;99.90;;;;;;4156588;28;19976;-62
2022/09/18 11:44:22;;;;;;;;;;;14.20;99.90;;;;;;4160399;28;19909;-65
2022/09/18 11:46:26;;;;;;;;;;;14.20;99.90;;;;;;4160648;28;19970;-62
2022/09/18 11:48:36;;;;;;;;;;;14.10;99.90;;;;;;4158134;28;19913;-64
2022/09/18 11:50:37;;;;;;;;;;;14.10;99.90;;;;;;4163452;28;19901;-63
2022/09/18 11:53:02;;;;;;;;;;;14.10;99.90;;;;;;4161927;28;19939;-64
2022/09/18 11:55:12;;;;;;;;;;;14.10;99.90;;;;;;4152095;28;19928;-62
2022/09/18 11:57:20;;;;;;;;;;;14.10;99.90;;;;;;4163460;28;19955;-63
2022/09/18 11:59:24;;;;;;;;;;;14.20;99.90;;;;;;4161679;28;20691;-63
2022/09/18 12:01:40;;;;;;;;;;;14.40;99.90;;;;;;4147247;28;19964;-63
2022/09/18 12:03:43;;;;;;;;;;;14.60;99.90;;;;;;4146865;28;19967;-62